createdAt,value
2023-01-23T00:01:07.291Z,5.80
2023-01-23T00:03:33.479Z,5.80
2023-01-23T00:06:03.352Z,5.80
2023-01-23T00:08:29.770Z,5.80
2023-01-23T00:10:56.633Z,5.80
2023-01-23T00:13:23.230Z,5.80
2023-01-23T00:15:49.970Z,5.80
2023-01-23T00:18:16.569Z,5.80
2023-01-23T00:20:42.952Z,5.70
2023-01-23T00:23:11.201Z,5.80
2023-01-23T00:25:37.581Z,5.70
2023-01-23T00:28:04.076Z,5.80
2023-01-23T00:30:31.933Z,5.80
2023-01-23T00:32:58.318Z,5.80
2023-01-23T00:35:25.676Z,5.80
2023-01-23T00:37:53.700Z,5.80
2023-01-23T00:40:20.117Z,5.80
2023-01-23T00:42:46.647Z,5.80
2023-01-23T00:45:12.786Z,5.80
2023-01-23T00:47:39.395Z,5.80
2023-01-23T00:50:05.799Z,5.80
2023-01-23T00:52:31.954Z,5.80
2023-01-23T00:54:58.055Z,5.80
2023-01-23T00:57:24.218Z,5.80
2023-01-23T00:59:50.341Z,5.70
2023-01-23T01:02:16.492Z,5.70
2023-01-23T01:04:42.615Z,5.80
2023-01-23T01:07:08.767Z,5.70
2023-01-23T01:09:34.910Z,5.70
2023-01-23T01:12:01.098Z,5.70
2023-01-23T01:14:27.248Z,5.70
2023-01-23T01:16:53.377Z,5.70
2023-01-23T01:19:22.924Z,5.70
2023-01-23T01:21:49.078Z,5.70
2023-01-23T01:24:16.767Z,5.70
2023-01-23T01:26:42.897Z,5.70
2023-01-23T01:29:09.509Z,5.70
2023-01-23T01:31:35.805Z,5.70
2023-01-23T01:34:02.056Z,5.70
2023-01-23T01:36:28.616Z,5.70
2023-01-23T01:38:54.786Z,5.70
2023-01-23T01:41:21.026Z,5.70
2023-01-23T01:43:47.530Z,5.70
2023-01-23T01:46:26.428Z,5.60
2023-01-23T01:49:25.973Z,5.60
2023-01-23T01:52:09.642Z,5.60
2023-01-23T01:54:57.846Z,5.60
2023-01-23T01:57:35.169Z,5.60
2023-01-23T02:00:09.646Z,5.60
2023-01-23T02:03:00.168Z,5.50
2023-01-23T02:05:49.597Z,5.60
2023-01-23T02:08:34.362Z,5.60
2023-01-23T02:11:05.444Z,5.60
2023-01-23T02:13:42.100Z,5.50
2023-01-23T02:16:17.990Z,5.50
2023-01-23T02:18:48.414Z,5.50
2023-01-23T02:21:22.632Z,5.50
2023-01-23T02:24:24.530Z,5.50
2023-01-23T02:26:51.986Z,5.50
2023-01-23T02:29:19.501Z,5.50
2023-01-23T02:31:52.189Z,5.50
2023-01-23T02:34:21.448Z,5.50
2023-01-23T02:36:48.873Z,5.50
2023-01-23T02:39:18.974Z,5.40
2023-01-23T02:41:51.246Z,5.40
2023-01-23T02:44:25.433Z,5.40
2023-01-23T02:47:01.921Z,5.30
2023-01-23T02:49:28.477Z,5.30
2023-01-23T02:51:56.361Z,5.30
2023-01-23T02:54:23.632Z,5.20
2023-01-23T02:56:50.784Z,5.20
2023-01-23T02:59:38.163Z,5.10
2023-01-23T03:02:05.453Z,5.10
2023-01-23T03:04:31.787Z,5.10
2023-01-23T03:06:58.892Z,5.10
2023-01-23T03:09:25.960Z,5.00
2023-01-23T03:11:52.378Z,5.00
2023-01-23T03:14:21.625Z,4.90
2023-01-23T03:16:52.970Z,5.00
2023-01-23T03:19:25.861Z,5.00
2023-01-23T03:21:52.610Z,5.00
2023-01-23T03:24:20.236Z,5.00
2023-01-23T03:26:48.639Z,4.90
2023-01-23T03:29:43.514Z,4.90
2023-01-23T03:32:12.983Z,4.90
2023-01-23T03:34:40.692Z,4.90
2023-01-23T03:37:08.623Z,4.90
2023-01-23T03:39:55.125Z,4.90
2023-01-23T03:42:22.167Z,4.90
2023-01-23T03:44:52.129Z,4.90
2023-01-23T03:47:21.297Z,4.90
2023-01-23T03:49:47.553Z,4.90
2023-01-23T03:52:13.752Z,5.00
2023-01-23T03:54:41.377Z,5.00
2023-01-23T03:57:09.524Z,5.00
2023-01-23T03:59:59.196Z,5.00
2023-01-23T04:02:28.729Z,5.00
2023-01-23T04:04:55.375Z,5.00
2023-01-23T04:07:21.528Z,5.00
2023-01-23T04:09:48.362Z,5.00
2023-01-23T04:12:14.944Z,5.00
2023-01-23T04:14:44.271Z,5.00
2023-01-23T04:17:12.142Z,5.00
2023-01-23T04:19:38.788Z,5.00
2023-01-23T04:22:04.950Z,5.00
2023-01-23T04:24:37.906Z,5.00
2023-01-23T04:27:04.045Z,5.00
2023-01-23T04:29:30.245Z,5.00
2023-01-23T04:31:58.743Z,5.00
2023-01-23T04:34:24.996Z,5.00
2023-01-23T04:36:52.781Z,5.00
2023-01-23T04:39:19.175Z,5.00
2023-01-23T04:41:47.865Z,5.00
2023-01-23T04:44:26.592Z,5.00
2023-01-23T04:47:11.255Z,5.00
2023-01-23T04:49:38.680Z,5.00
2023-01-23T04:52:04.826Z,5.00
2023-01-23T04:54:35.293Z,5.00
2023-01-23T04:57:01.440Z,5.00
2023-01-23T04:59:28.701Z,5.00
2023-01-23T05:01:55.445Z,5.00
2023-01-23T05:04:21.883Z,5.10
2023-01-23T05:06:48.105Z,5.10
2023-01-23T05:09:15.560Z,5.10
2023-01-23T05:11:50.161Z,5.10
2023-01-23T05:14:17.497Z,5.10
2023-01-23T05:16:46.442Z,5.10
2023-01-23T05:19:28.043Z,5.10
2023-01-23T05:21:54.798Z,5.10
2023-01-23T05:24:21.777Z,5.10
2023-01-23T05:26:48.468Z,5.10
2023-01-23T05:29:15.263Z,5.10
2023-01-23T05:31:50.987Z,5.10
2023-01-23T05:34:36.106Z,5.20
2023-01-23T05:37:04.934Z,5.20
2023-01-23T05:39:34.112Z,5.20
2023-01-23T05:42:00.792Z,5.20
2023-01-23T05:44:31.394Z,5.20
2023-01-23T05:47:08.749Z,5.20
2023-01-23T05:49:35.021Z,5.20
2023-01-23T05:52:01.842Z,5.20
2023-01-23T05:54:28.547Z,5.20
2023-01-23T05:56:54.723Z,5.20
2023-01-23T05:59:39.525Z,5.20
2023-01-23T06:02:33.642Z,5.20
2023-01-23T06:05:24.670Z,5.20
2023-01-23T06:08:00.128Z,5.20
2023-01-23T06:10:26.288Z,5.20
2023-01-23T06:12:52.440Z,5.20
2023-01-23T06:15:18.627Z,5.20
2023-01-23T06:17:45.404Z,5.20
2023-01-23T06:20:12.104Z,5.20
2023-01-23T06:22:40.890Z,5.20
2023-01-23T06:25:11.916Z,5.20
2023-01-23T06:27:38.279Z,5.30
2023-01-23T06:30:08.271Z,5.30
2023-01-23T06:32:39.488Z,5.30
2023-01-23T06:35:07.928Z,5.30
2023-01-23T06:37:37.716Z,5.30
2023-01-23T06:40:05.605Z,5.30
2023-01-23T06:42:32.175Z,5.30
2023-01-23T06:44:58.502Z,5.30
2023-01-23T06:47:27.136Z,5.30
2023-01-23T06:50:01.160Z,5.30
2023-01-23T06:52:29.888Z,5.30
2023-01-23T06:54:56.162Z,5.30
2023-01-23T06:57:22.598Z,5.30
2023-01-23T06:59:49.811Z,5.30
2023-01-23T07:02:18.203Z,5.40
2023-01-23T07:04:51.368Z,5.30
2023-01-23T07:07:18.245Z,5.40
2023-01-23T07:09:47.427Z,5.40
2023-01-23T07:12:18.085Z,5.30
2023-01-23T07:14:44.980Z,5.40
2023-01-23T07:17:13.526Z,5.40
2023-01-23T07:19:39.831Z,5.40
2023-01-23T07:22:09.623Z,5.40
2023-01-23T07:24:35.724Z,5.40
2023-01-23T07:27:01.991Z,5.40
2023-01-23T07:29:28.104Z,5.40
2023-01-23T07:31:57.350Z,5.40
2023-01-23T07:34:23.615Z,5.40
2023-01-23T07:36:49.743Z,5.40
2023-01-23T07:39:15.884Z,5.50
2023-01-23T07:41:43.407Z,5.50
2023-01-23T07:44:17.778Z,5.50
2023-01-23T07:46:45.264Z,5.60
2023-01-23T07:49:12.724Z,5.60
2023-01-23T07:51:39.892Z,5.60
2023-01-23T07:54:06.593Z,5.60
2023-01-23T07:56:32.981Z,5.60
2023-01-23T07:58:59.688Z,5.60
2023-01-23T08:01:25.957Z,5.70
2023-01-23T08:03:53.033Z,5.70
2023-01-23T08:06:19.246Z,5.70
2023-01-23T08:08:48.553Z,5.70
2023-01-23T08:11:14.907Z,5.70
2023-01-23T08:13:41.184Z,5.70
2023-01-23T08:16:07.989Z,5.70
2023-01-23T08:18:34.509Z,5.70
2023-01-23T08:21:02.781Z,5.70
2023-01-23T08:23:32.024Z,5.70
2023-01-23T08:26:01.877Z,5.70
2023-01-23T08:28:28.487Z,5.70
2023-01-23T08:30:54.966Z,5.80
2023-01-23T08:33:21.915Z,5.80
2023-01-23T08:35:54.348Z,5.80
2023-01-23T08:38:22.613Z,5.80
2023-01-23T08:40:51.931Z,5.90
2023-01-23T08:43:19.840Z,5.90
2023-01-23T08:45:57.855Z,5.90
2023-01-23T08:48:26.021Z,6.00
2023-01-23T08:50:59.979Z,6.00
2023-01-23T08:53:26.648Z,6.00
2023-01-23T08:55:53.085Z,6.00
2023-01-23T08:58:19.725Z,6.10
2023-01-23T09:00:47.857Z,6.10
2023-01-23T09:03:13.988Z,6.10
2023-01-23T09:05:40.127Z,6.20
2023-01-23T09:08:06.244Z,6.20
2023-01-23T09:10:32.363Z,6.20
2023-01-23T09:12:58.711Z,6.30
2023-01-23T09:15:24.865Z,6.30
2023-01-23T09:17:51.085Z,6.30
2023-01-23T09:20:17.762Z,6.30
2023-01-23T09:22:44.202Z,6.30
2023-01-23T09:25:11.663Z,6.40
2023-01-23T09:27:37.817Z,6.40
2023-01-23T09:30:04.843Z,6.40
2023-01-23T09:32:31.051Z,6.50
2023-01-23T09:34:57.153Z,6.50
2023-01-23T09:37:23.301Z,6.60
2023-01-23T09:39:49.645Z,6.60
2023-01-23T09:42:34.017Z,6.60
2023-01-23T09:45:07.318Z,6.60
2023-01-23T09:48:06.375Z,6.70
2023-01-23T09:50:43.153Z,6.70
2023-01-23T09:53:19.907Z,6.70
2023-01-23T09:55:59.071Z,6.80
2023-01-23T09:58:36.491Z,6.80
2023-01-23T10:01:03.061Z,6.80
2023-01-23T10:03:31.721Z,6.80
2023-01-23T10:06:22.877Z,6.90
2023-01-23T10:09:20.067Z,6.90
2023-01-23T10:12:05.794Z,6.90
2023-01-23T10:15:13.408Z,6.90
2023-01-23T10:18:27.412Z,6.90
2023-01-23T10:21:01.086Z,7.00
2023-01-23T10:24:08.840Z,7.00
2023-01-23T10:26:45.900Z,7.10
2023-01-23T10:29:37.973Z,7.10
2023-01-23T10:32:37.557Z,7.10
2023-01-23T10:35:23.336Z,7.10
2023-01-23T10:38:13.712Z,7.10
2023-01-23T10:40:58.727Z,7.10
2023-01-23T10:43:26.713Z,7.20
2023-01-23T10:45:52.905Z,7.20
2023-01-23T10:48:42.623Z,7.20
2023-01-23T10:51:34.721Z,7.20
2023-01-23T10:54:08.544Z,7.20
2023-01-23T10:56:47.427Z,7.20
2023-01-23T10:59:48.090Z,7.30
2023-01-23T11:02:14.348Z,7.30
2023-01-23T11:04:44.537Z,7.30
2023-01-23T11:07:24.759Z,7.30
2023-01-23T11:09:57.224Z,7.40
2023-01-23T11:12:27.377Z,7.40
2023-01-23T11:15:31.577Z,7.40
2023-01-23T11:18:00.615Z,7.40
2023-01-23T11:20:36.392Z,7.50
2023-01-23T11:23:17.290Z,7.50
2023-01-23T11:25:44.761Z,7.60
2023-01-23T11:28:46.841Z,7.60
2023-01-23T11:31:21.165Z,7.70
2023-01-23T11:34:11.220Z,7.70
2023-01-23T11:36:47.905Z,7.70
2023-01-23T11:39:35.817Z,7.70
2023-01-23T11:42:02.315Z,7.70
2023-01-23T11:44:38.110Z,7.70
2023-01-23T11:47:48.348Z,7.70
2023-01-23T11:50:55.186Z,7.70
2023-01-23T11:53:54.572Z,7.70
2023-01-23T11:56:59.427Z,7.70
2023-01-23T12:00:05.965Z,7.70
2023-01-23T12:02:58.023Z,7.80
2023-01-23T12:06:23.167Z,7.70
2023-01-23T12:09:16.361Z,7.70
2023-01-23T12:12:28.244Z,7.80
2023-01-23T12:15:37.292Z,7.80
2023-01-23T12:18:56.507Z,7.80
2023-01-23T12:22:05.305Z,7.80
2023-01-23T12:25:27.571Z,7.80
2023-01-23T12:28:42.019Z,7.80
2023-01-23T12:31:26.839Z,7.80
2023-01-23T12:34:18.557Z,7.80
2023-01-23T12:37:19.304Z,7.80
2023-01-23T12:40:00.731Z,7.80
2023-01-23T12:42:41.900Z,7.80
2023-01-23T12:45:14.870Z,7.90
2023-01-23T12:48:11.895Z,7.90
2023-01-23T12:51:01.267Z,7.90
2023-01-23T12:53:32.229Z,7.90
2023-01-23T12:56:28.242Z,7.90
2023-01-23T12:59:29.181Z,7.90
2023-01-23T13:02:41.558Z,7.90
2023-01-23T13:05:15.340Z,7.90
2023-01-23T13:07:51.349Z,8.00
2023-01-23T13:11:04.964Z,8.00
2023-01-23T13:13:32.450Z,8.00
2023-01-23T13:16:10.276Z,8.00
2023-01-23T13:18:58.013Z,8.00
2023-01-23T13:21:42.736Z,8.00
2023-01-23T13:24:50.625Z,8.00
2023-01-23T13:27:35.206Z,7.90
2023-01-23T13:30:04.427Z,8.00
2023-01-23T13:32:31.162Z,8.00
2023-01-23T13:34:57.385Z,8.00
2023-01-23T13:37:50.384Z,8.00
2023-01-23T13:40:21.247Z,8.00
2023-01-23T13:42:47.921Z,8.00
2023-01-23T13:45:28.702Z,8.00
2023-01-23T14:22:37.287Z,7.90
2023-01-23T14:25:17.218Z,7.90
2023-01-23T14:27:52.785Z,7.90
2023-01-23T14:30:25.769Z,7.90
2023-01-23T14:32:51.883Z,7.90
2023-01-23T14:35:26.267Z,7.90
2023-01-23T14:37:57.050Z,7.80
2023-01-23T14:40:28.331Z,7.80
2023-01-23T14:43:07.063Z,7.80
2023-01-23T14:45:35.584Z,7.80
2023-01-23T14:48:07.070Z,7.80
2023-01-23T14:50:34.806Z,7.70
2023-01-23T14:53:06.010Z,7.70
2023-01-23T14:55:39.001Z,7.70
2023-01-23T14:58:06.887Z,7.60
2023-01-23T15:00:35.225Z,7.60
2023-01-23T15:03:03.477Z,7.60
2023-01-23T15:05:32.017Z,7.60
2023-01-23T15:08:03.264Z,7.60
2023-01-23T15:10:35.341Z,7.60
2023-01-23T15:13:11.133Z,7.50
2023-01-23T15:15:43.519Z,7.50
2023-01-23T15:18:39.474Z,7.40
2023-01-23T15:21:08.078Z,7.40
2023-01-23T15:23:39.637Z,7.30
2023-01-23T15:26:23.735Z,7.30
2023-01-23T15:28:52.794Z,7.30
2023-01-23T15:31:33.748Z,7.30
2023-01-23T15:34:15.184Z,7.20
2023-01-23T15:37:04.695Z,7.20
2023-01-23T15:39:45.766Z,7.10
2023-01-23T15:42:12.072Z,7.10
2023-01-23T15:44:39.129Z,7.00
2023-01-23T15:47:05.663Z,7.00
2023-01-23T15:49:35.033Z,6.90
2023-01-23T15:52:20.894Z,6.90
2023-01-23T15:54:51.043Z,6.90
2023-01-23T15:57:17.311Z,6.80
2023-01-23T15:59:43.541Z,6.80
2023-01-23T16:02:30.717Z,6.70
2023-01-23T16:04:57.989Z,6.70
2023-01-23T16:07:31.595Z,6.70
2023-01-23T16:09:57.743Z,6.70
2023-01-23T16:12:28.709Z,6.60
2023-01-23T16:14:55.657Z,6.60
2023-01-23T16:17:22.389Z,6.60
2023-01-23T16:19:49.854Z,6.60
2023-01-23T16:22:26.035Z,6.60
2023-01-23T16:24:53.033Z,6.60
2023-01-23T16:27:26.359Z,6.60
2023-01-23T16:29:54.729Z,6.60
2023-01-23T16:32:21.027Z,6.60
2023-01-23T16:34:47.872Z,6.50
2023-01-23T16:37:16.712Z,6.50
2023-01-23T16:39:47.010Z,6.50
2023-01-23T16:42:21.680Z,6.50
2023-01-23T16:44:48.380Z,6.50
2023-01-23T16:47:14.606Z,6.50
2023-01-23T16:49:51.445Z,6.50
2023-01-23T16:52:19.873Z,6.50
2023-01-23T16:54:46.000Z,6.50
2023-01-23T16:57:19.637Z,6.40
2023-01-23T16:59:47.411Z,6.40
2023-01-23T17:02:25.002Z,6.40
2023-01-23T17:04:51.357Z,6.40
2023-01-23T17:07:18.793Z,6.40
2023-01-23T17:09:46.564Z,6.40
2023-01-23T17:12:20.214Z,6.30
2023-01-23T17:14:48.564Z,6.30
2023-01-23T17:17:31.100Z,6.30
2023-01-23T17:19:58.523Z,6.30
2023-01-23T17:22:29.661Z,6.30
2023-01-23T17:24:55.907Z,6.30
2023-01-23T17:27:22.186Z,6.30
2023-01-23T17:29:48.836Z,6.30
2023-01-23T17:32:32.198Z,6.30
2023-01-23T17:35:02.884Z,6.30
2023-01-23T17:37:30.105Z,6.30
2023-01-23T17:39:56.259Z,6.30
2023-01-23T17:42:22.390Z,6.30
2023-01-23T17:44:48.825Z,6.30
2023-01-23T17:47:16.269Z,6.30
2023-01-23T17:49:51.093Z,6.30
2023-01-23T17:52:19.426Z,6.30
2023-01-23T17:54:45.529Z,6.30
2023-01-23T17:57:11.769Z,6.30
2023-01-23T17:59:37.867Z,6.30
2023-01-23T18:02:27.242Z,6.30
2023-01-23T18:04:54.588Z,6.30
2023-01-23T18:07:20.731Z,6.30
2023-01-23T18:09:46.845Z,6.30
2023-01-23T18:12:49.470Z,6.30
2023-01-23T18:15:39.100Z,6.30
2023-01-23T18:18:26.969Z,6.30
2023-01-23T18:20:54.000Z,6.30
2023-01-23T18:23:25.831Z,6.20
2023-01-23T18:26:30.876Z,6.20
2023-01-23T18:29:05.743Z,6.20
2023-01-23T18:31:48.791Z,6.20
2023-01-23T18:34:42.618Z,6.20
2023-01-23T18:37:39.650Z,6.20
2023-01-23T18:40:34.849Z,6.20
2023-01-23T18:43:34.572Z,6.20
2023-01-23T18:46:01.302Z,6.20
2023-01-23T18:48:27.960Z,6.10
2023-01-23T18:51:35.686Z,6.10
2023-01-23T18:54:21.955Z,6.10
2023-01-23T18:57:12.524Z,6.10
2023-01-23T19:00:04.954Z,6.10
2023-01-23T19:02:46.070Z,6.10
2023-01-23T19:05:18.350Z,6.10
2023-01-23T19:07:46.415Z,6.10
2023-01-23T19:10:22.292Z,6.10
2023-01-23T19:13:28.813Z,6.10
2023-01-23T19:16:25.676Z,6.10
2023-01-23T19:19:16.265Z,6.10
2023-01-23T19:21:45.687Z,6.10
2023-01-23T19:24:18.603Z,6.10
2023-01-23T19:26:45.781Z,6.10
2023-01-23T19:29:21.946Z,6.10
2023-01-23T19:32:06.415Z,6.10
2023-01-23T19:34:33.552Z,6.10
2023-01-23T19:36:59.700Z,6.10
2023-01-23T19:39:25.888Z,6.10
2023-01-23T19:41:52.705Z,6.20
2023-01-23T19:44:23.474Z,6.20
2023-01-23T19:46:50.484Z,6.20
2023-01-23T19:49:16.861Z,6.20
2023-01-23T19:51:43.566Z,6.20
2023-01-23T19:54:14.995Z,6.30
2023-01-23T19:56:42.039Z,6.30
2023-01-23T19:59:08.181Z,6.30
2023-01-23T20:01:47.718Z,6.20
2023-01-23T20:04:20.991Z,6.30
2023-01-23T20:06:50.753Z,6.30
2023-01-23T20:09:17.757Z,6.30
2023-01-23T20:11:45.073Z,6.20
2023-01-23T20:14:11.649Z,6.30
2023-01-23T20:16:40.261Z,6.30
2023-01-23T20:19:06.884Z,6.30
2023-01-23T20:21:33.424Z,6.30
2023-01-23T20:23:59.892Z,6.30
2023-01-23T20:26:26.098Z,6.30
2023-01-23T20:28:52.553Z,6.30
2023-01-23T20:31:19.801Z,6.30
2023-01-23T20:33:46.010Z,6.30
2023-01-23T20:36:13.065Z,6.40
2023-01-23T20:38:40.151Z,6.30
2023-01-23T20:41:13.597Z,6.40
2023-01-23T20:43:42.424Z,6.40
2023-01-23T20:46:09.727Z,6.40
2023-01-23T20:48:37.809Z,6.40
2023-01-23T20:51:06.065Z,6.40
2023-01-23T20:53:35.012Z,6.30
2023-01-23T20:56:09.624Z,6.30
2023-01-23T20:58:58.225Z,6.40
2023-01-23T21:01:29.188Z,6.30
2023-01-23T21:03:55.492Z,6.30
2023-01-23T21:06:22.435Z,6.30
2023-01-23T21:08:48.559Z,6.30
2023-01-23T21:11:18.711Z,6.30
2023-01-23T21:13:51.325Z,6.30
2023-01-23T21:16:19.798Z,6.30
2023-01-23T21:18:47.311Z,6.30
2023-01-23T21:21:18.442Z,6.20
2023-01-23T21:23:47.995Z,6.30
2023-01-23T21:26:21.560Z,6.20
2023-01-23T21:28:50.656Z,6.20
2023-01-23T21:31:22.157Z,6.20
2023-01-23T21:33:49.134Z,6.20
2023-01-23T21:36:21.101Z,6.20
2023-01-23T21:38:51.392Z,6.20
2023-01-23T21:41:18.144Z,6.20
2023-01-23T21:43:44.305Z,6.20
2023-01-23T21:46:10.443Z,6.20
2023-01-23T21:48:37.032Z,6.20
2023-01-23T21:51:16.570Z,6.20
2023-01-23T21:53:46.954Z,6.20
2023-01-23T21:56:17.607Z,6.20
2023-01-23T21:58:44.286Z,6.20
2023-01-23T22:01:35.019Z,6.20
2023-01-23T22:04:30.519Z,6.20
2023-01-23T22:06:57.808Z,6.20
2023-01-23T22:09:25.846Z,6.20
2023-01-23T22:11:52.897Z,6.20
2023-01-23T22:14:19.148Z,6.20
2023-01-23T22:16:49.164Z,6.20
2023-01-23T22:19:22.613Z,6.20
2023-01-23T22:21:50.591Z,6.10
2023-01-23T22:24:17.073Z,6.20
2023-01-23T22:26:43.543Z,6.10
2023-01-23T22:29:12.957Z,6.20
2023-01-23T22:31:39.387Z,6.10
2023-01-23T22:34:05.697Z,6.10
2023-01-23T22:36:31.859Z,6.10
2023-01-23T22:38:58.257Z,6.10
2023-01-23T22:41:24.464Z,6.10
2023-01-23T22:43:58.476Z,6.10
2023-01-23T22:46:24.647Z,6.20
2023-01-23T22:48:51.348Z,6.20
2023-01-23T22:51:26.914Z,6.20
2023-01-23T22:53:54.822Z,6.20
2023-01-23T22:56:22.521Z,6.20
2023-01-23T22:58:51.081Z,6.20
2023-01-23T23:01:18.534Z,6.20
2023-01-23T23:03:45.480Z,6.20
2023-01-23T23:06:15.085Z,6.20
2023-01-23T23:08:42.957Z,6.20
2023-01-23T23:11:13.530Z,6.20
2023-01-23T23:13:40.669Z,6.10
2023-01-23T23:16:21.169Z,6.10
2023-01-23T23:18:51.709Z,6.10
2023-01-23T23:21:24.371Z,6.20
2023-01-23T23:23:51.738Z,6.20
2023-01-23T23:26:17.851Z,6.20
2023-01-23T23:28:44.027Z,6.20
2023-01-23T23:31:10.494Z,6.20
2023-01-23T23:33:37.160Z,6.20
2023-01-23T23:36:03.791Z,6.20
2023-01-23T23:38:29.930Z,6.20
2023-01-23T23:40:59.062Z,6.20
2023-01-23T23:43:26.424Z,6.20
2023-01-23T23:46:05.260Z,6.10
2023-01-23T23:48:35.763Z,6.10
2023-01-23T23:51:06.200Z,6.10
2023-01-23T23:53:33.800Z,6.10
2023-01-23T23:56:00.371Z,6.10
2023-01-23T23:58:26.849Z,6.10
